Time;durP1;ratioP1;P1;durP2;ratioP2;P2;SDS_P1;SDS_P2;PMS_P1;PMS_P2;Temp;Humidity;BMP_temperature;BMP_pressure;BME280_temperature;BME280_humidity;BME280_pressure;Samples;Min_cycle;Max_cycle;Signal;HPM_P1;HPM_P2
2021/11/20 00:02:13;;;;;;;12.93;7.75;;;;;;;9.67;63.80;100325.16;5001421;28;20065;-69
2021/11/20 00:04:40;;;;;;;17.60;8.50;;;;;;;9.65;63.30;100324.47;5002744;28;20073;-68
2021/11/20 00:07:06;;;;;;;14.20;7.90;;;;;;;9.57;63.18;100315.41;5002905;28;20035;-68
2021/11/20 00:09:32;;;;;;;16.45;8.05;;;;;;;9.63;63.15;100307.91;5002454;28;20517;-69
2021/11/20 00:12:04;;;;;;;16.50;8.45;;;;;;;9.55;63.19;100309.44;5002499;28;20027;-69
2021/11/20 00:14:30;;;;;;;16.38;8.18;;;;;;;9.47;63.67;100304.03;5002449;28;20217;-69
2021/11/20 00:16:57;;;;;;;12.70;7.25;;;;;;;9.46;63.67;100298.88;5002391;28;20094;-69
2021/11/20 00:19:24;;;;;;;14.60;8.05;;;;;;;9.46;63.78;100294.44;5002172;28;20030;-68
2021/11/20 00:21:55;;;;;;;13.63;7.38;;;;;;;9.44;64.43;100299.03;5002649;28;20213;-69
2021/11/20 00:24:36;;;;;;;13.18;7.22;;;;;;;9.43;64.17;100307.94;5002465;28;20030;-68
2021/11/20 00:27:05;;;;;;;13.13;7.93;;;;;;;9.42;64.20;100319.47;5001291;28;20446;-68
2021/11/20 00:29:58;;;;;;;16.50;7.22;;;;;;;9.38;64.54;100317.25;5002269;28;20049;-69
2021/11/20 00:32:27;;;;;;;17.80;7.80;;;;;;;9.23;65.30;100317.66;5002430;28;20030;-70
2021/11/20 00:34:57;;;;;;;13.57;7.40;;;;;;;9.28;65.28;100309.31;5002268;28;20065;-68
2021/11/20 00:37:23;;;;;;;13.73;7.63;;;;;;;9.25;65.47;100314.88;5002261;28;20034;-69
2021/11/20 00:39:50;;;;;;;15.07;7.93;;;;;;;9.14;66.01;100326.41;5002117;28;20042;-69
2021/11/20 00:42:16;;;;;;;15.73;7.93;;;;;;;9.14;66.30;100318.47;5002374;28;20030;-68
2021/11/20 00:44:42;;;;;;;16.38;7.88;;;;;;;9.34;65.67;100318.47;5005610;28;20026;-68
2021/11/20 00:47:07;;;;;;;20.20;7.90;;;;;;;9.42;65.76;100322.13;5005882;28;20045;-68
2021/11/20 00:49:33;;;;;;;17.27;7.90;;;;;;;9.45;65.84;100313.91;5005634;28;20026;-68
2021/11/20 00:52:00;;;;;;;15.68;8.13;;;;;;;9.44;65.44;100295.53;5005878;28;20343;-67
2021/11/20 00:54:25;;;;;;;12.73;7.30;;;;;;;9.49;65.65;100310.00;5005521;28;20046;-67
2021/11/20 00:56:51;;;;;;;19.42;8.43;;;;;;;9.28;66.83;100304.84;5006050;28;20057;-69
2021/11/20 00:59:17;;;;;;;13.63;8.02;;;;;;;9.29;67.03;100300.41;5005528;28;20201;-70
2021/11/20 01:01:50;;;;;;;14.90;8.60;;;;;;;9.24;67.31;100306.09;5006048;28;20038;-67
2021/11/20 01:04:16;;;;;;;12.60;7.70;;;;;;;9.27;67.44;100305.00;5005389;28;20068;-69
2021/11/20 01:06:42;;;;;;;14.40;8.10;;;;;;;9.40;66.54;100296.81;5005395;28;20062;-68
2021/11/20 01:09:13;;;;;;;18.35;8.40;;;;;;;9.23;67.79;100301.78;5004991;28;20279;-68
2021/11/20 01:11:44;;;;;;;18.33;8.48;;;;;;;9.34;67.33;100303.47;5005733;28;20042;-68
2021/11/20 01:14:12;;;;;;;16.08;7.97;;;;;;;9.18;68.00;100297.91;5005168;28;20046;-68
2021/11/20 01:16:40;;;;;;;18.17;8.82;;;;;;;9.13;68.30;100292.19;5005275;28;20062;-67
2021/11/20 01:19:06;;;;;;;20.10;8.43;;;;;;;9.14;67.88;100292.06;5005014;28;20248;-69
2021/11/20 01:21:34;;;;;;;19.88;9.00;;;;;;;9.10;68.58;100303.88;5005605;28;20042;-70
2021/11/20 01:24:00;;;;;;;17.35;9.00;;;;;;;9.21;68.40;100293.16;5003935;28;20233;-68
2021/11/20 01:26:25;;;;;;;19.20;8.90;;;;;;;9.18;68.28;100295.25;5005177;28;20225;-68
2021/11/20 01:28:54;;;;;;;17.33;8.43;;;;;;;9.10;68.69;100287.19;5005060;28;20045;-68
2021/11/20 01:31:23;;;;;;;16.95;8.32;;;;;;;8.92;68.56;100240.34;5004987;28;20057;-69
2021/11/20 01:33:50;;;;;;;17.77;8.07;;;;;;;9.20;68.44;100277.47;5005021;28;20033;-69
2021/11/20 01:36:19;;;;;;;20.15;9.20;;;;;;;9.17;68.62;100270.66;5003960;28;20062;-68
2021/11/20 01:38:45;;;;;;;18.77;9.07;;;;;;;9.06;69.25;100280.53;5004788;28;20030;-67
2021/11/20 01:41:12;;;;;;;14.88;8.10;;;;;;;9.10;69.38;100281.91;5005197;28;20073;-69
2021/11/20 01:43:38;;;;;;;19.88;8.75;;;;;;;9.29;68.81;100279.25;5004919;28;20029;-68
2021/11/20 01:46:13;;;;;;;15.52;8.38;;;;;;;9.47;68.49;100274.13;5004563;28;20084;-67
2021/11/20 01:48:59;;;;;;;21.20;9.73;;;;;;;9.19;69.22;100276.63;5004777;28;20093;-69
2021/11/20 01:51:27;;;;;;;15.75;8.50;;;;;;;9.31;68.85;100276.47;5004935;28;20034;-69
2021/11/20 01:54:20;;;;;;;24.65;9.68;;;;;;;9.30;69.37;100275.66;5004754;28;20045;-69
2021/11/20 01:57:06;;;;;;;14.98;8.80;;;;;;;9.28;68.85;100286.34;5004529;28;20062;-68
2021/11/20 01:59:41;;;;;;;17.45;8.52;;;;;;;9.08;69.77;100276.78;4985621;28;20288;-67
2021/11/20 02:02:13;;;;;;;23.25;8.85;;;;;;;9.36;69.34;100261.03;5019818;28;20030;-67
2021/11/20 02:04:54;;;;;;;20.65;9.07;;;;;;;9.34;69.29;100250.59;5004343;28;20089;-68
2021/11/20 02:07:26;;;;;;;18.92;9.63;;;;;;;9.36;68.91;100253.94;5004299;28;20293;-67
2021/11/20 02:10:10;;;;;;;19.38;10.07;;;;;;;9.26;69.69;100256.59;5004071;28;20051;-69
2021/11/20 02:12:43;;;;;;;20.13;9.30;;;;;;;9.34;69.34;100244.47;5004321;28;20320;-70
2021/11/20 02:15:16;;;;;;;21.70;10.00;;;;;;;9.25;70.06;100243.53;5004275;28;20268;-68
2021/11/20 02:17:46;;;;;;;13.93;9.05;;;;;;;9.44;69.80;100240.88;5004127;28;20034;-68
2021/11/20 02:20:20;;;;;;;17.35;9.40;;;;;;;9.34;69.98;100244.47;5004146;28;20034;-68
2021/11/20 02:22:45;;;;;;;18.45;10.20;;;;;;;9.20;70.51;100245.75;5004099;28;20034;-67
2021/11/20 02:25:11;;;;;;;22.38;9.90;;;;;;;9.14;71.06;100238.38;5004126;28;20034;-68
2021/11/20 02:27:43;;;;;;;23.77;10.55;;;;;;;9.18;71.31;100232.69;5019406;28;20336;-68
2021/11/20 02:30:20;;;;;;;20.60;10.00;;;;;;;9.07;71.89;100234.66;5004041;28;20351;-68
2021/11/20 02:32:51;;;;;;;21.95;11.27;;;;;;;9.11;72.02;100239.50;5003940;28;20030;-69
2021/11/20 02:35:18;;;;;;;25.15;11.35;;;;;;;9.24;71.66;100234.75;5003870;28;20042;-69
2021/11/20 02:37:46;;;;;;;19.52;10.40;;;;;;;9.14;71.97;100227.81;5003702;28;20030;-68
2021/11/20 02:40:12;;;;;;;22.17;11.68;;;;;;;9.31;71.20;100224.47;5003968;28;20065;-67
2021/11/20 02:42:38;;;;;;;20.50;10.30;;;;;;;8.97;72.43;100218.81;5003657;28;20026;-69
2021/11/20 02:45:23;;;;;;;20.60;10.60;;;;;;;8.82;73.15;100226.31;5003616;28;20264;-69
2021/11/20 02:47:50;;;;;;;23.02;10.35;;;;;;;8.99;72.41;100234.50;5003740;28;20432;-69
2021/11/20 02:50:25;;;;;;;16.58;10.13;;;;;;;9.07;71.91;100234.66;5003294;28;20018;-67
2021/11/20 02:52:50;;;;;;;15.38;9.20;;;;;;;9.15;71.28;100230.31;5003673;28;20038;-69
2021/11/20 02:55:16;;;;;;;15.73;9.32;;;;;;;9.12;71.39;100224.50;5003481;28;20053;-70
2021/11/20 02:57:43;;;;;;;16.70;8.85;;;;;;;9.13;71.49;100215.59;5003549;28;20034;-69
2021/11/20 03:00:12;;;;;;;17.75;9.55;;;;;;;9.16;71.01;100215.31;5003543;28;20066;-68
2021/11/20 03:02:38;;;;;;;18.55;9.68;;;;;;;8.90;71.57;100200.03;5003325;28;20038;-69
2021/11/20 03:05:05;;;;;;;15.60;8.13;;;;;;;9.03;71.14;100196.28;5003294;28;20068;-68
2021/11/20 03:07:30;;;;;;;15.55;8.10;;;;;;;8.98;70.69;100201.97;5002350;28;20038;-69
2021/11/20 03:09:56;;;;;;;17.77;8.25;;;;;;;8.90;70.44;100205.31;5002950;28;20057;-69
2021/11/20 03:12:22;;;;;;;12.93;6.90;;;;;;;8.91;70.26;100196.44;5003181;28;20308;-68
2021/11/20 03:14:47;;;;;;;12.50;6.53;;;;;;;8.95;70.39;100189.06;5002954;28;20058;-69
2021/11/20 03:17:13;;;;;;;12.25;6.90;;;;;;;8.86;70.80;100190.72;5002926;28;20038;-69
2021/11/20 03:19:48;;;;;;;17.40;8.65;;;;;;;8.83;70.61;100193.66;5002749;28;20101;-69
2021/11/20 03:22:27;;;;;;;13.30;7.18;;;;;;;8.93;70.59;100191.00;5002963;28;20037;-68
2021/11/20 03:24:53;;;;;;;14.32;7.68;;;;;;;9.02;70.85;100197.25;5002777;28;20035;-67
2021/11/20 03:27:19;;;;;;;16.33;8.93;;;;;;;8.90;71.42;100191.28;5002844;28;20327;-68
2021/11/20 03:29:46;;;;;;;18.15;8.93;;;;;;;8.96;71.70;100188.09;5003076;28;20044;-68
2021/11/20 03:32:12;;;;;;;15.40;8.52;;;;;;;9.07;71.52;100185.28;5003048;28;20177;-67
2021/11/20 03:34:39;;;;;;;17.02;9.13;;;;;;;9.17;71.59;100174.69;5002932;28;20093;-70
2021/11/20 03:37:04;;;;;;;18.33;10.38;;;;;;;9.03;72.15;100168.06;5002662;28;20042;-67
2021/11/20 03:39:30;;;;;;;18.52;9.63;;;;;;;9.15;72.47;100174.00;5002667;28;20282;-68
2021/11/20 03:41:56;;;;;;;18.20;10.00;;;;;;;9.06;72.77;100180.97;5002801;28;20272;-68
2021/11/20 03:44:22;;;;;;;18.83;10.55;;;;;;;9.06;72.81;100170.41;5002900;28;20068;-69
2021/11/20 03:46:48;;;;;;;18.40;10.32;;;;;;;9.16;73.23;100176.50;5002947;28;20069;-70
2021/11/20 03:49:13;;;;;;;23.58;10.45;;;;;;;9.07;73.61;100172.06;5002911;28;20030;-67
2021/11/20 03:51:39;;;;;;;21.73;10.98;;;;;;;9.11;73.84;100168.19;5002674;28;20158;-68
2021/11/20 03:54:04;;;;;;;21.08;11.60;;;;;;;9.14;73.64;100177.63;5002741;28;20026;-68
2021/11/20 03:56:32;;;;;;;20.88;11.43;;;;;;;9.13;74.36;100168.88;5002970;28;20041;-68
2021/11/20 03:58:58;;;;;;;19.05;10.98;;;;;;;9.28;73.68;100167.44;5002791;28;20072;-67
2021/11/20 04:01:28;;;;;;;23.63;11.80;;;;;;;9.43;72.74;100169.66;5002765;28;20034;-68
2021/11/20 04:03:54;;;;;;;20.17;11.50;;;;;;;9.38;72.87;100170.09;5002599;28;20097;-69
2021/11/20 04:06:20;;;;;;;18.13;11.40;;;;;;;9.41;72.77;100171.59;5002472;28;20061;-69
2021/11/20 04:08:48;;;;;;;17.00;10.50;;;;;;;9.51;72.35;100177.69;5002435;28;20054;-68
2021/11/20 04:11:20;;;;;;;22.80;11.95;;;;;;;9.44;72.86;100181.88;5002808;28;20081;-68
2021/11/20 04:13:46;;;;;;;20.85;11.02;;;;;;;9.48;72.94;100185.91;5002546;28;20312;-68
2021/11/20 04:16:13;;;;;;;17.67;10.52;;;;;;;9.57;72.29;100190.34;5002460;28;20124;-68
2021/11/20 04:18:38;;;;;;;16.38;9.73;;;;;;;9.46;72.74;100193.16;5004459;28;20038;-67
2021/11/20 04:21:05;;;;;;;17.55;8.90;;;;;;;9.40;72.88;100183.16;5006622;28;20067;-68
2021/11/20 04:23:32;;;;;;;14.88;8.98;;;;;;;9.50;72.46;100197.19;5006444;28;20435;-68
2021/11/20 04:25:57;;;;;;;18.60;9.30;;;;;;;9.45;72.80;100194.13;5006533;28;20289;-69
2021/11/20 04:28:23;;;;;;;19.80;9.90;;;;;;;9.51;72.22;100199.69;5006362;28;20035;-69
2021/11/20 04:30:50;;;;;;;17.35;8.90;;;;;;;9.62;72.31;100203.94;5006225;28;20073;-68
2021/11/20 04:33:16;;;;;;;12.05;8.13;;;;;;;9.49;72.71;100211.38;5021441;28;20093;-68
2021/11/20 04:35:43;;;;;;;13.02;7.82;;;;;;;9.54;72.42;100199.38;5006215;28;20034;-68
2021/11/20 04:38:10;;;;;;;14.65;8.38;;;;;;;9.70;71.88;100196.13;5005892;28;20093;-68
2021/11/20 04:40:36;;;;;;;12.75;7.97;;;;;;;9.74;71.84;100205.44;5006071;28;20046;-68
2021/11/20 04:43:02;;;;;;;15.20;8.20;;;;;;;9.60;72.26;100200.63;5005951;28;20061;-68
2021/11/20 04:45:33;;;;;;;16.42;8.02;;;;;;;9.67;72.04;100204.34;5006067;28;20339;-68
2021/11/20 04:48:01;;;;;;;16.65;8.65;;;;;;;9.71;71.92;100202.25;5005866;28;20034;-69
2021/11/20 04:50:28;;;;;;;14.05;8.43;;;;;;;9.70;72.25;100195.28;5005917;28;20225;-70
2021/11/20 04:52:54;;;;;;;14.23;8.93;;;;;;;9.60;72.41;100203.25;5005739;28;20209;-68
2021/11/20 04:55:20;;;;;;;14.35;8.32;;;;;;;9.74;72.15;100210.72;5005649;28;20042;-68
2021/11/20 04:57:46;;;;;;;15.35;8.13;;;;;;;9.70;72.38;100201.41;5005733;28;20065;-68
2021/11/20 05:00:16;;;;;;;16.00;8.43;;;;;;;9.74;71.84;100208.06;5005612;28;20268;-68
2021/11/20 05:02:42;;;;;;;14.43;8.43;;;;;;;9.73;72.26;100205.59;5005639;28;20080;-68
2021/11/20 05:05:08;;;;;;;15.02;8.30;;;;;;;9.74;72.47;100210.72;5005623;28;20097;-68
2021/11/20 05:07:34;;;;;;;17.60;9.35;;;;;;;9.76;72.52;100211.41;5005489;28;20038;-69
2021/11/20 05:10:01;;;;;;;16.08;9.25;;;;;;;9.71;72.37;100221.59;5005254;28;20053;-69
2021/11/20 05:12:26;;;;;;;21.10;9.93;;;;;;;9.84;72.25;100214.16;5005441;28;20041;-68
2021/11/20 05:14:52;;;;;;;14.98;9.07;;;;;;;9.84;72.74;100218.63;5005462;28;20030;-68
2021/11/20 05:17:18;;;;;;;17.75;9.55;;;;;;;9.85;72.49;100225.56;5005718;28;20038;-69
2021/11/20 05:19:43;;;;;;;14.57;9.35;;;;;;;9.91;72.91;100225.00;5005045;28;20046;-68
2021/11/20 05:22:09;;;;;;;15.80;9.63;;;;;;;9.89;73.52;100219.84;5005175;28;20033;-69
2021/11/20 05:24:35;;;;;;;14.98;8.75;;;;;;;9.85;73.77;100218.47;5005379;28;20273;-69
2021/11/20 05:27:02;;;;;;;18.98;9.98;;;;;;;9.80;74.02;100206.66;5005207;28;20099;-68
2021/11/20 05:29:39;;;;;;;18.33;9.73;;;;;;;9.94;74.09;100216.75;5004174;28;20073;-68
2021/11/20 05:32:06;;;;;;;19.88;10.77;;;;;;;9.91;74.48;100215.25;5005186;28;20109;-67
2021/11/20 05:34:32;;;;;;;23.05;11.02;;;;;;;9.94;75.02;100211.47;5005022;28;20018;-68
2021/11/20 05:36:58;;;;;;;19.73;11.27;;;;;;;10.02;74.18;100219.50;5004967;28;20533;-68
2021/11/20 05:39:23;;;;;;;16.95;10.25;;;;;;;9.99;75.09;100217.16;5004764;28;20026;-69
2021/11/20 05:41:49;;;;;;;25.42;15.48;;;;;;;10.03;74.92;100209.75;5020194;28;20064;-69
2021/11/20 05:44:15;;;;;;;19.90;12.05;;;;;;;10.05;74.98;100227.16;5005137;28;20375;-68
2021/11/20 05:46:41;;;;;;;17.35;11.23;;;;;;;10.09;75.10;100225.03;5004781;28;20061;-68
2021/11/20 05:49:07;;;;;;;22.95;12.05;;;;;;;10.12;75.21;100235.34;5005021;28;20089;-68
2021/11/20 05:51:34;;;;;;;20.35;12.02;;;;;;;10.18;74.90;100235.56;5003915;28;20209;-67
2021/11/20 05:54:00;;;;;;;20.85;11.57;;;;;;;10.24;74.68;100239.47;5004585;28;20042;-68
2021/11/20 05:56:25;;;;;;;19.00;11.35;;;;;;;10.24;74.42;100247.41;5004734;28;20049;-68
2021/11/20 05:58:51;;;;;;;20.13;10.50;;;;;;;10.16;75.15;100240.19;5005039;28;20384;-68
2021/11/20 06:01:17;;;;;;;19.10;9.93;;;;;;;10.25;74.53;100238.50;5004498;28;20038;-69
2021/11/20 06:03:43;;;;;;;19.33;11.60;;;;;;;10.35;73.62;100226.03;5004534;28;20261;-69
2021/11/20 06:06:09;;;;;;;19.88;10.80;;;;;;;10.38;73.77;100231.03;5004717;28;20038;-68
2021/11/20 06:08:35;;;;;;;19.25;9.70;;;;;;;10.44;72.68;100235.75;5003056;28;20388;-68
2021/11/20 06:11:03;;;;;;;20.30;10.35;;;;;;;10.53;72.71;100234.88;5004564;28;20037;-68
2021/11/20 06:13:30;;;;;;;20.50;10.15;;;;;;;10.49;71.88;100235.31;5004464;28;20082;-68
2021/11/20 06:15:56;;;;;;;17.23;9.88;;;;;;;10.50;72.00;100242.28;5004529;28;20034;-69
2021/11/20 06:18:22;;;;;;;16.23;9.60;;;;;;;10.56;71.11;100225.78;5019365;28;20065;-68
2021/11/20 06:20:50;;;;;;;16.48;10.10;;;;;;;10.61;71.61;100243.88;5004263;28;20053;-69
2021/11/20 06:23:16;;;;;;;22.58;11.27;;;;;;;10.63;71.26;100233.97;5004223;28;20034;-70
2021/11/20 06:25:42;;;;;;;24.00;11.20;;;;;;;10.75;71.05;100224.81;5004046;28;20038;-69
2021/11/20 06:28:08;;;;;;;19.73;9.90;;;;;;;10.71;70.76;100234.88;5004316;28;20084;-68
2021/11/20 06:30:35;;;;;;;18.88;10.13;;;;;;;10.75;70.92;100238.06;5004099;28;20030;-67
2021/11/20 06:33:01;;;;;;;21.40;9.93;;;;;;;10.72;70.88;100239.19;5004378;28;20031;-68
2021/11/20 06:35:29;;;;;;;15.25;8.48;;;;;;;10.81;71.06;100229.50;5003900;28;20053;-68
2021/11/20 06:37:55;;;;;;;14.70;9.02;;;;;;;10.92;70.19;100231.09;5003794;28;20036;-68
2021/11/20 06:40:24;;;;;;;18.75;9.85;;;;;;;11.00;70.41;100226.69;5003797;28;20209;-70
2021/11/20 06:42:50;;;;;;;23.70;10.57;;;;;;;11.07;70.00;100230.41;5003769;28;20182;-70
2021/11/20 06:45:20;;;;;;;21.10;9.27;;;;;;;11.03;70.21;100221.09;5003491;28;20031;-68
2021/11/20 06:47:50;;;;;;;19.23;9.40;;;;;;;11.17;70.23;100214.41;5003607;28;20095;-70
2021/11/20 06:50:16;;;;;;;23.70;10.30;;;;;;;11.38;68.99;100214.06;5003448;28;20065;-70
2021/11/20 06:52:42;;;;;;;23.65;10.30;;;;;;;11.76;68.65;100221.59;5003622;28;20034;-70
2021/11/20 06:55:09;;;;;;;16.50;9.35;;;;;;;11.82;67.54;100215.69;5003253;28;20375;-70
2021/11/20 06:58:08;;;;;;;15.73;8.73;;;;;;;11.82;68.24;100215.69;5003605;28;20197;-70
2021/11/20 07:00:26;;;;;;;22.33;9.43;;;;;;;11.88;67.27;100216.88;5003346;28;20351;-70
2021/11/20 07:03:13;;;;;;;16.83;9.05;;;;;;;11.99;67.54;100213.94;5003630;28;20054;-70
2021/11/20 07:05:44;;;;;;;21.13;10.02;;;;;;;12.06;67.51;100232.72;5003422;28;20252;-70
2021/11/20 07:08:12;;;;;;;18.15;10.15;;;;;;;12.34;67.17;100222.69;5003125;28;20046;-67
2021/11/20 07:10:39;;;;;;;14.05;9.77;;;;;;;12.44;66.80;100215.41;5003280;28;20325;-69
2021/11/20 07:13:05;;;;;;;21.67;10.65;;;;;;;12.46;66.67;100214.25;5018293;28;20034;-69
2021/11/20 07:15:32;;;;;;;17.98;9.60;;;;;;;12.28;67.23;100204.75;5003064;28;20283;-69
2021/11/20 07:17:58;;;;;;;15.13;9.30;;;;;;;12.09;68.99;100200.53;5003104;28;20231;-70
2021/11/20 07:20:29;;;;;;;17.90;9.75;;;;;;;12.22;68.72;100197.44;5002940;28;20066;-70
2021/11/20 07:22:55;;;;;;;24.20;9.90;;;;;;;12.21;68.87;100198.44;5003577;28;20033;-70
2021/11/20 07:25:24;;;;;;;17.02;9.20;;;;;;;12.22;68.54;100202.75;5003145;28;20093;-70
2021/11/20 07:27:49;;;;;;;15.75;9.00;;;;;;;12.45;68.30;100204.63;5003060;28;20038;-68
2021/11/20 07:30:17;;;;;;;17.92;9.27;;;;;;;12.67;67.40;100189.09;5002818;28;20038;-67
2021/11/20 07:32:42;;;;;;;16.98;8.35;;;;;;;12.86;66.58;100196.75;5003224;28;20317;-68
2021/11/20 07:35:09;;;;;;;14.57;8.07;;;;;;;12.99;66.22;100201.56;5002707;28;20112;-69
2021/11/20 07:37:35;;;;;;;14.15;8.07;;;;;;;13.01;66.20;100194.25;5002910;28;20025;-70
2021/11/20 07:40:01;;;;;;;13.98;8.75;;;;;;;13.22;66.02;100193.75;5003031;28;20100;-69
2021/11/20 07:42:26;;;;;;;17.00;8.20;;;;;;;13.28;65.08;100195.75;5002810;28;20034;-69
2021/11/20 07:44:52;;;;;;;14.00;8.63;;;;;;;13.33;64.36;100188.09;5018026;28;20088;-67
2021/11/20 07:47:18;;;;;;;13.98;8.75;;;;;;;13.30;64.48;100169.81;5002746;28;20085;-68
2021/11/20 07:49:44;;;;;;;15.10;7.75;;;;;;;13.51;64.17;100211.84;5002897;28;20212;-68
2021/11/20 07:52:11;;;;;;;17.88;7.90;;;;;;;13.63;63.67;100206.00;5002607;28;20219;-68
2021/11/20 07:54:38;;;;;;;15.38;7.63;;;;;;;13.72;64.06;100204.16;5002890;28;20089;-68
2021/11/20 07:57:04;;;;;;;12.35;7.13;;;;;;;13.79;63.00;100189.16;5002946;28;20049;-67
2021/11/20 07:59:30;;;;;;;19.70;9.23;;;;;;;13.88;62.55;100189.97;5002499;28;20332;-68
2021/11/20 08:01:55;;;;;;;15.10;8.20;;;;;;;13.97;62.83;100204.91;5002749;28;20034;-68
2021/11/20 08:04:21;;;;;;;26.52;7.18;;;;;;;13.97;61.93;100195.09;5002625;28;20030;-67
2021/11/20 08:06:47;;;;;;;12.60;6.93;;;;;;;14.17;62.31;100202.66;5002574;28;20034;-69
2021/11/20 08:09:13;;;;;;;20.63;6.35;;;;;;;14.23;61.33;100202.78;5002622;28;20204;-69
2021/11/20 08:11:40;;;;;;;15.00;6.13;;;;;;;14.03;61.77;100210.38;5001704;28;20335;-67
2021/11/20 08:14:06;;;;;;;14.43;7.55;;;;;;;14.12;62.40;100207.66;5002421;28;20041;-68
2021/11/20 08:16:33;;;;;;;16.00;7.15;;;;;;;14.33;61.79;100210.56;5002657;28;20038;-68
2021/11/20 08:18:59;;;;;;;13.43;7.78;;;;;;;13.96;62.35;100201.41;5002395;28;20041;-67
2021/11/20 08:21:25;;;;;;;10.93;7.03;;;;;;;14.02;62.42;100194.56;5002391;28;20106;-68
2021/11/20 08:23:51;;;;;;;10.38;6.57;;;;;;;13.94;62.54;100206.06;5002428;28;20228;-68
2021/11/20 08:26:18;;;;;;;14.93;5.95;;;;;;;14.02;62.59;100197.22;5002725;28;20049;-67
2021/11/20 08:28:44;;;;;;;11.82;6.47;;;;;;;14.26;62.15;100193.59;5002809;28;20049;-66
2021/11/20 08:31:10;;;;;;;9.82;5.90;;;;;;;14.43;60.55;100189.88;5002537;28;20035;-67
2021/11/20 08:33:36;;;;;;;21.23;5.80;;;;;;;14.61;60.20;100189.63;5002485;28;20090;-67
2021/11/20 08:36:06;;;;;;;20.60;7.80;;;;;;;14.74;59.55;100175.72;5002419;28;20038;-67
2021/11/20 08:38:33;;;;;;;18.63;6.07;;;;;;;14.94;59.12;100172.38;5002284;28;20093;-67
2021/11/20 08:40:59;;;;;;;16.10;5.97;;;;;;;15.08;58.63;100170.75;5002420;28;20331;-67
2021/11/20 08:43:28;;;;;;;9.25;6.03;;;;;;;15.18;58.91;100171.31;5002275;28;20038;-70
2021/11/20 08:45:56;;;;;;;16.42;7.03;;;;;;;15.07;58.90;100165.59;5002086;28;20066;-70
2021/11/20 08:48:21;;;;;;;7.25;5.03;;;;;;;15.13;58.20;100157.69;5002394;28;20034;-70
2021/11/20 08:50:53;;;;;;;46.20;7.05;;;;;;;15.16;57.23;100167.19;5002224;28;20304;-70
2021/11/20 08:53:20;;;;;;;17.63;7.00;;;;;;;14.98;58.68;100170.19;5002284;28;20277;-69
2021/11/20 08:55:45;;;;;;;13.95;5.80;;;;;;;15.00;58.80;100174.31;5002165;28;20225;-67
2021/11/20 08:58:12;;;;;;;9.65;6.00;;;;;;;15.17;58.34;100164.31;5002291;28;20053;-71
2021/11/20 09:00:46;;;;;;;11.27;5.90;;;;;;;15.20;58.38;100179.13;5002012;28;20287;-69
2021/11/20 09:03:38;;;;;;;14.25;5.90;;;;;;;15.05;57.75;100165.78;5002185;28;20086;-68
2021/11/20 09:06:06;;;;;;;12.90;6.35;;;;;;;15.07;58.45;100169.09;5004495;28;20072;-68
2021/11/20 09:08:38;;;;;;;14.30;5.93;;;;;;;15.21;58.06;100156.78;5005383;28;20030;-68
2021/11/20 09:11:34;;;;;;;11.25;6.30;;;;;;;15.44;57.64;100160.22;5005355;28;20061;-69
2021/11/20 09:14:09;;;;;;;14.50;5.70;;;;;;;15.61;57.83;100156.41;5005444;28;20112;-68
2021/11/20 09:16:34;;;;;;;13.18;5.93;;;;;;;15.49;57.09;100152.50;5005786;28;20233;-68
2021/11/20 09:19:01;;;;;;;11.50;5.80;;;;;;;15.44;57.00;100144.19;5005275;28;20050;-69
2021/11/20 09:21:28;;;;;;;14.38;5.22;;;;;;;15.43;56.37;100137.22;5005450;28;20057;-68
2021/11/20 09:23:54;;;;;;;11.57;5.90;;;;;;;15.43;56.46;100139.88;5005359;28;20069;-69
2021/11/20 09:26:21;;;;;;;17.25;5.40;;;;;;;15.48;56.40;100126.81;5005208;28;20105;-68
2021/11/20 09:28:47;;;;;;;8.70;4.95;;;;;;;15.49;56.24;100117.78;5005067;28;20030;-69
2021/11/20 09:31:14;;;;;;;10.10;5.55;;;;;;;15.40;56.60;100118.06;5005105;28;20280;-69
2021/11/20 09:33:40;;;;;;;10.70;4.75;;;;;;;15.26;56.85;100112.53;5005162;28;20034;-69
2021/11/20 09:36:07;;;;;;;10.30;5.75;;;;;;;15.25;56.64;100123.41;5004868;28;20093;-68
2021/11/20 09:38:34;;;;;;;11.75;5.80;;;;;;;15.11;57.14;100109.03;5005039;28;20350;-69
2021/11/20 09:41:10;;;;;;;10.77;5.88;;;;;;;15.16;57.67;100120.00;5005095;28;20042;-68
2021/11/20 09:43:39;;;;;;;15.50;5.90;;;;;;;15.27;57.00;100108.88;5005022;28;20084;-68
2021/11/20 09:46:16;;;;;;;18.98;6.30;;;;;;;15.31;57.24;100104.00;5005000;28;20069;-68
2021/11/20 09:48:46;;;;;;;20.35;6.78;;;;;;;15.30;57.12;100105.84;5004779;28;20038;-69
2021/11/20 09:51:21;;;;;;;11.05;5.65;;;;;;;15.44;56.95;100098.84;5004644;28;20042;-68
2021/11/20 09:53:47;;;;;;;12.15;6.13;;;;;;;15.53;56.98;100092.38;5004887;28;20438;-69
2021/11/20 09:56:21;;;;;;;11.50;5.65;;;;;;;15.69;55.87;100090.59;5004873;28;20042;-69
2021/11/20 09:58:48;;;;;;;;;;;;;;;15.81;56.14;100091.78;5020540;28;20068;-69
2021/11/20 10:01:24;;;;;;;10.63;5.80;;;;;;;15.69;55.03;100079.91;5004591;28;19917;-68
2021/11/20 10:04:07;;;;;;;8.07;5.20;;;;;;;15.48;55.95;100075.28;5004612;28;20038;-68
2021/11/20 10:06:41;;;;;;;13.50;5.60;;;;;;;15.49;56.12;100079.59;5004900;28;20050;-69
2021/11/20 10:09:18;;;;;;;16.10;5.60;;;;;;;15.43;55.88;100075.84;5004199;28;20046;-68
2021/11/20 10:12:03;;;;;;;15.48;5.55;;;;;;;15.27;55.98;100060.84;5004697;28;20030;-68
2021/11/20 10:14:46;;;;;;;12.05;5.88;;;;;;;15.14;56.23;100052.66;5019366;28;20026;-68
2021/11/20 10:17:26;;;;;;;20.23;6.90;;;;;;;15.22;56.46;100057.06;5003876;28;20050;-69
2021/11/20 10:19:59;;;;;;;18.27;6.75;;;;;;;15.39;56.73;100058.53;5004136;28;20039;-68
2021/11/20 10:22:33;;;;;;;16.70;6.53;;;;;;;15.50;56.20;100039.38;5004353;28;20343;-68
2021/11/20 10:25:23;;;;;;;15.55;7.15;;;;;;;15.68;55.94;100040.88;5004218;28;20034;-69
2021/11/20 10:27:48;;;;;;;18.73;4.72;;;;;;;15.71;55.20;100036.00;5003065;28;20308;-69
2021/11/20 10:30:47;;;;;;;15.02;5.18;;;;;;;15.77;54.57;100027.25;5004240;28;20038;-68
2021/11/20 10:33:24;;;;;;;9.98;4.45;;;;;;;15.78;54.37;100039.56;5003969;28;20050;-68
2021/11/20 10:36:12;;;;;;;9.52;4.40;;;;;;;15.79;53.75;100043.06;5003819;28;20099;-68
2021/11/20 10:38:55;;;;;;;10.50;4.40;;;;;;;15.93;53.92;100039.53;5003687;28;20049;-68
2021/11/20 10:41:28;;;;;;;11.80;4.30;;;;;;;15.90;53.95;100038.06;5003792;28;20343;-68
2021/11/20 10:44:10;;;;;;;9.25;4.68;;;;;;;16.00;53.69;100040.41;5003759;28;20026;-68
2021/11/20 10:47:05;;;;;;;7.45;4.35;;;;;;;15.99;53.75;100032.59;5004042;28;20041;-68
2021/11/20 10:49:42;;;;;;;7.20;4.15;;;;;;;15.80;53.60;100026.84;5003393;28;20022;-69
2021/11/20 10:52:26;;;;;;;15.50;4.82;;;;;;;15.71;53.82;100019.16;5003659;28;20045;-68
2021/11/20 10:55:03;;;;;;;12.45;3.72;;;;;;;15.64;54.09;100019.09;5003539;28;20039;-69
2021/11/20 10:58:10;;;;;;;6.82;4.30;;;;;;;15.71;54.51;100014.63;5003582;28;20026;-68
2021/11/20 11:01:13;;;;;;;11.45;5.07;;;;;;;15.92;53.91;100012.00;5018743;28;20064;-69
2021/11/20 11:03:44;;;;;;;9.38;4.28;;;;;;;15.94;53.25;100020.63;5003439;28;20268;-67
2021/11/20 11:06:28;;;;;;;8.93;4.90;;;;;;;16.20;52.65;100009.38;5003440;28;20064;-69
2021/11/20 11:09:01;;;;;;;11.02;3.95;;;;;;;16.26;52.42;99999.78;5003020;28;20050;-68
2021/11/20 11:11:33;;;;;;;7.75;4.10;;;;;;;16.45;52.10;100003.63;5003621;28;20288;-68
2021/11/20 11:14:02;;;;;;;8.98;4.47;;;;;;;16.60;50.78;99996.34;5003188;28;20034;-69
2021/11/20 11:16:33;;;;;;;10.10;3.95;;;;;;;16.44;51.43;99997.44;5003315;28;20034;-68
2021/11/20 11:19:22;;;;;;;8.77;4.15;;;;;;;16.42;50.91;99987.97;5003061;28;20106;-69
2021/11/20 11:21:57;;;;;;;9.82;4.72;;;;;;;16.42;51.96;99985.31;5003067;28;20232;-68
2021/11/20 11:24:38;;;;;;;10.25;3.70;;;;;;;16.50;50.62;99987.84;5003201;28;20038;-70
2021/11/20 11:27:19;;;;;;;11.88;6.40;;;;;;;16.59;51.36;99990.16;5002725;28;20030;-70
2021/11/20 11:29:54;;;;;;;21.83;6.40;;;;;;;16.69;51.18;99997.06;5002883;28;20121;-69
2021/11/20 11:32:19;;;;;;;14.13;5.38;;;;;;;16.74;50.72;99997.31;5002974;28;20066;-68
2021/11/20 11:34:51;;;;;;;8.98;4.97;;;;;;;16.69;49.93;99983.72;5002921;28;20026;-68